Terminal Aerodrome Forecast
Issued by NWS Charleston, WV

Current Version | Previous Version | Text Only | Print | Product List | Glossary Off
Versions: 1 2 3 4 5 6 7 8 9 10 11 12 13 14 15 16 17 18 19 20 21 22 23

000
FTUS41 KRLX 291300 AAA
TAFBKW
TAF AMD
KBKW 291315Z 2913/3012 28005KT P6SM SCT005 BKN015
     FM291500 29006KT P6SM SCT015 BKN025
     FM291700 31007KT P6SM VCSH SCT040
     FM292200 33006KT P6SM SCT050
     FM300300 00000KT P6SM FEW100=

USA.gov is the U.S. government's official web portal to all federal, state and local government web resources and services.